Jepson Prairie Reserve, California Weather observations

Data are for 10 minute period ending at time listed.
 Day   Time   Solar   Ave.   Ave.  Ave.  Vector  Max.   Baro.   Total    
  of    of     Rad.   Air    Rel.  Wind   Wind   Wind  Press.  Precip.   
Year   Day            Temp.  Hum.  Speed  Dir.   Gust                    
2016   (PST)  Kw/m2    F      %     mph   deg.    mph    mb.     in.     
-------------------------------------------------------------------------
 125   20:10   0.00   58.3    80   17.3   217    24.5   1007.5    0.00 
 125   20:20   0.00   58.3    81   18.1   218    27.0   1007.8    0.00 
 125   20:30   0.00   58.2    82   18.2   220    24.7   1007.8    0.00 
 125   20:40   0.00   58.3    82   19.6   219    26.8   1007.8    0.00 
 125   20:50   0.00   58.3    83   19.2   218    26.4   1007.8    0.00 
 125   21:00   0.00   58.1    84   19.9   217    25.1   1007.8    0.00 
 125   21:10   0.00   58.0    84   19.8   218    25.8   1008.1    0.00 
 125   21:20   0.00   57.7    82   20.6   217    27.5   1008.1    0.00 
 125   21:30   0.00   57.7    81   21.7   220    28.4   1008.1    0.00 
 125   21:40   0.00   57.5    80   23.2   221    31.4   1008.1    0.00 
 125   21:50   0.00   57.2    80   23.4   220    32.5   1008.1    0.00 
 125   22:00   0.00   56.9    80   25.1   220    32.4   1007.8    0.00 
 125   22:10   0.00   56.8    80   23.0   220    32.7   1008.1    0.00 
 125   22:20   0.00   56.8    80   23.1   218    30.4   1008.1    0.00 
 125   22:30   0.00   56.9    80   23.1   220    30.6   1007.8    0.00 
 125   22:40   0.00   57.0    80   22.5   222    28.2   1007.8    0.00 
 125   22:50   0.00   56.8    80   21.2   224    27.7   1007.8    0.00 
 125   23:00   0.00   56.6    80   20.8   222    27.2   1007.8    0.00 
 125   23:10   0.00   56.5    80   20.9   224    26.8   1008.1    0.00 
 125   23:20   0.00   56.4    80   20.5   224    28.2   1008.1    0.00 
 125   23:30   0.00   56.3    81   20.9   224    26.3   1007.8    0.00 
 125   23:40   0.00   56.3    80   22.2   223    28.0   1007.8    0.00 
 125   23:50   0.00   56.3    80   21.0   223    28.5   1007.8    0.00 
 126    0:00   0.00   56.4    80   21.1   223    26.5   1007.8    0.00 
 126    0:10   0.00   56.4    80   21.6   225    29.3   1007.8    0.00 
 126    0:20   0.00   56.4    80   20.7   226    28.0   1007.8    0.00 
 126    0:30   0.00   56.3    80   20.8   226    28.8   1007.5    0.00 
 126    0:40   0.00   56.2    80   20.5   223    27.8   1007.5    0.00 
 126    0:50   0.00   56.2    80   21.8   223    28.4   1007.1    0.00 
 126    1:00   0.00   56.2    79   22.1   221    30.6   1007.1    0.00 
 126    1:10   0.00   56.3    79   22.7   222    29.5   1006.8    0.00 
 126    1:20   0.00   56.4    78   22.6   222    30.4   1006.8    0.00 
 126    1:30   0.00   56.4    78   22.6   222    31.7   1006.8    0.00 
 126    1:40   0.00   56.3    78   21.3   224    29.0   1006.8    0.00 
 126    1:50   0.00   56.4    78   20.7   226    26.1   1007.1    0.00 
 126    2:00   0.00   56.3    78   19.2   230    24.8   1007.1    0.00 
 126    2:10   0.00   56.2    78   18.0   232    23.5   1007.1    0.00 
 126    2:20   0.00   56.2    78   18.4   234    23.8   1007.1    0.00 
 126    2:30   0.00   56.2    79   17.7   229    21.9   1007.1    0.00 
 126    2:40   0.00   56.1    79   16.6   227    20.5   1007.1    0.00 
 126    2:50   0.00   55.9    80   16.2   229    21.7   1007.1    0.00 
 126    3:00   0.00   55.9    80   16.5   225    21.0   1007.1    0.00 
 126    3:10   0.00   56.1    79   15.9   227    20.5   1007.1    0.00 
 126    3:20   0.00   56.4    78   16.5   229    21.5   1007.1    0.00 
 126    3:30   0.00   56.6    77   16.4   230    22.4   1007.1    0.00 
 126    3:40   0.00   56.7    76   14.9   224    20.1   1007.5    0.00 
 126    3:50   0.00   56.7    76   15.5   221    20.0   1007.5    0.00 
 126    4:00   0.00   56.6    77   14.9   223    19.1   1007.5    0.00 
 126    4:10   0.00   56.4    77   14.8   222    18.4   1007.5    0.00 
 126    4:20   0.00   56.2    77   14.5   225    18.7   1007.5    0.00 
 126    4:30   0.00   56.3    76   14.4   224    21.1   1007.5    0.00 
 126    4:40   0.00   56.4    76   15.0   223    20.2   1007.5    0.00 
 126    4:50   0.00   56.5    76   15.1   224    18.9   1007.5    0.00 
 126    5:00   0.00   56.4    77   14.6   224    19.2   1007.5    0.00 
 126    5:10   0.00   56.3    77   14.9   224    19.7   1007.5    0.00 
 126    5:20   0.01   56.2    77   14.8   222    20.2   1007.8    0.00 
 126    5:30   0.02   56.2    77   14.1   222    18.1   1007.8    0.00 
 126    5:40   0.03   56.3    78   12.9   217    16.7   1007.5    0.00 
 126    5:50   0.05   56.2    79   12.9   216    18.6   1007.5    0.00 
 126    6:00   0.07   56.4    79   11.8   212    14.9   1007.8    0.00 
 126    6:10   0.08   56.9    78   12.5   209    16.4   1007.8    0.00 
 126    6:20   0.10   57.5    77   13.6   215    17.8   1007.8    0.00 
 126    6:30   0.12   57.8    76   14.2   218    18.3   1007.8    0.00 
 126    6:40   0.21   58.9    73   14.4   216    20.0   1007.8    0.00 
 126    6:50   0.26   59.6    70   16.5   224    21.6   1007.8    0.00 
 126    7:00   0.26   59.9    69   16.6   223    21.8   1007.8    0.00 
 126    7:10   0.34   60.6    66   18.0   228    23.3   1007.8    0.00 
 126    7:20   0.38   61.2    65   17.7   222    24.5   1008.1    0.00 
 126    7:30   0.36   61.2    65   18.6   218    23.2   1008.1    0.00 
 126    7:40   0.37   61.3    64   19.5   217    24.5   1008.5    0.00 
 126    7:50   0.46   61.7    64   19.1   218    24.5   1008.5    0.00 
 126    8:00   0.51   62.5    62   19.0   218    24.0   1008.5    0.00 
 126    8:10   0.53   62.7    62   18.8   217    24.3   1008.5    0.00 
 126    8:20   0.56   63.3    61   17.9   217    25.4   1008.5    0.00 
 126    8:30   0.65   63.5    60   18.6   214    24.5   1008.5    0.00 
 126    8:40   0.52   63.2    61   18.2   213    23.2   1008.8    0.00 
 126    8:50   0.21   61.3    65   16.5   218    22.0   1008.8    0.00 
 126    9:00   0.17   60.6    67   14.8   221    19.4   1008.8    0.00 
 126    9:10   0.16   60.4    69   13.8   219    18.6   1008.8    0.00 
 126    9:20   0.16   60.6    70   13.3   220    18.0   1008.8    0.00 
 126    9:30   0.14   60.3    71   12.9   215    16.4   1008.8    0.00 
 126    9:40   0.08   59.5    76   13.8   220    18.0   1008.5    0.00 
 126    9:50   0.05   58.4    82   11.1   200    15.8   1008.8    0.00 
 126   10:00   0.12   57.8    86    9.2   211    14.2   1008.8    0.00 
 126   10:10   0.20   58.0    87    7.3   215     9.3   1008.8    0.00 
 126   10:20   0.11   58.1    86    6.3   218     9.0   1008.8    0.00 
 126   10:30   0.08   58.2    86    5.9   212     8.2   1008.8    0.00 
 126   10:40   0.07   58.3    86    6.3   204     8.6   1008.8    0.00 
 126   10:50   0.07   58.4    87    7.2   201    10.4   1008.5    0.00 
 126   11:00   0.08   58.4    87    8.0   212    10.5   1008.5    0.00 
 126   11:10   0.17   58.1    90    7.9   215    10.5   1008.5    0.10 
 126   11:20   0.25   58.5    90    7.3   222    10.2   1008.5    0.01 
 126   11:30   0.22   59.3    88    8.0   218    10.4   1008.5    0.00 
 126   11:40   0.22   59.8    86    7.7   221    10.0   1008.5    0.00 
 126   11:50   0.24   60.5    86    7.8   224    10.2   1008.5    0.00 
 126   12:00   0.50   61.3    84    8.3   223    12.9   1008.5    0.00 
 126   12:10   0.43   62.5    81    9.9   225    13.4   1008.5    0.00 
 126   12:20   0.42   62.7    80   10.2   221    14.0   1008.5    0.00 
 126   12:30   0.47   63.2    70   14.1   218    19.4   1008.8    0.00 
 126   12:40   0.46   63.2    66   15.1   228    18.8   1008.8    0.00 
 126   12:50   0.66   63.6    66   14.7   229    18.8   1008.8    0.00 
 126   13:00   0.63   64.8    64   15.3   226    20.1   1008.8    0.00 
 126   13:10   0.42   63.9    65   15.6   236    20.8   1009.1    0.00 
 126   13:20   0.59   64.6    65   14.5   235    19.1   1009.1    0.00 
 126   13:30   0.65   65.9    62   14.4   234    18.6   1009.1    0.00 
 126   13:40   0.37   64.7    64   14.2   241    20.0   1009.1    0.00 
 126   13:50   0.30   64.5    64   14.0   247    18.6   1009.1    0.00 
 126   14:00   0.22   63.8    65   14.7   247    19.6   1009.1    0.00 
 126   14:10   0.20   63.5    65   14.7   248    18.6   1009.1    0.00 
 126   14:20   0.17   63.4    65   13.8   251    17.8   1009.1    0.00 
 126   14:30   0.13   63.3    65   13.8   254    18.6   1009.1    0.00 
 126   14:40   0.14   63.4    66   12.3   248    16.2   1009.1    0.00 
 126   14:50   0.12   63.7    67   10.9   253    16.0   1009.1    0.00 
 126   15:00   0.12   63.5    66   12.8   242    16.4   1008.8    0.00 
 126   15:10   0.10   63.4    68   11.2   234    15.3   1008.8    0.00 
 126   15:20   0.08   63.4    69   13.0   231    16.5   1008.8    0.00 
 126   15:30   0.09   63.4    70   13.3   228    16.0   1008.8    0.00 
 126   15:40   0.08   63.3    71   10.9   223    15.1   1008.8    0.00 
 126   15:50   0.08   63.3    71    9.2   222    11.9   1009.1    0.00 
 126   16:00   0.10   63.3    72    9.1   224    11.5   1008.8    0.00 
 126   16:10   0.14   63.8    70   10.6   225    15.7   1008.8    0.00 
 126   16:20   0.15   64.1    67   11.0   226    15.2   1008.8    0.00 
 126   16:30   0.11   64.1    66   10.9   231    14.8   1008.8    0.00 
 126   16:40   0.07   63.7    67    9.7   235    12.6   1008.8    0.00 
 126   16:50   0.06   63.5    69    8.3   230    10.9   1008.8    0.00 
 126   17:00   0.07   62.9    73    6.5   231    10.5   1008.8    0.00 
 126   17:10   0.05   62.7    76    6.0   241     8.3   1008.5    0.00 
 126   17:20   0.04   62.8    74    5.3   251     7.5   1008.5    0.00 
 126   17:30   0.04   63.0    73    5.8   244     7.6   1008.5    0.00 
 126   17:40   0.04   62.8    72    5.3   253     7.1   1008.5    0.00 
 126   17:50   0.06   62.9    73    5.0   235     6.9   1008.5    0.00 
 126   18:00   0.04   62.8    74    5.2   235     8.0   1008.5    0.00 
 126   18:10   0.03   62.2    76    5.1   234     7.0   1008.5    0.00 
 126   18:20   0.03   61.8    77    4.7   240     6.8   1008.8    0.00 
 126   18:30   0.03   61.4    78    4.1   244     6.8   1008.5    0.00 
 126   18:40   0.02   61.6    78    3.2   293     6.2   1008.8    0.00 
 126   18:50   0.01   61.6    78    4.4   252     6.8   1008.8    0.00 
 126   19:00   0.00   61.6    79    3.1   270     5.4   1008.8    0.00 
 126   19:10   0.00   61.0    81    3.4   240     4.8   1008.8    0.00 
 126   19:20   0.00   60.8    82    2.1   278     3.8   1009.1    0.00 
 126   19:30   0.00   60.7    84    3.1   315     6.2   1009.1    0.00 
 126   19:40   0.00   60.6    85    4.2   354     5.3   1009.1    0.00 
 126   19:50   0.00   60.4    86    4.3   344     4.7   1009.1    0.00 
 126   20:00   0.00   60.1    86    2.3   358     4.0   1009.1    0.00 

Return to Jepson Prairie Reserve graphs page.


Western Regional Climate Center,wrcc@dri.edu